sensor_id;sensor_type;location;lat;lon;timestamp;pressure;altitude;pressure_sealevel;temperature;humidity
48390;BME280;34643;47.964;7.982;2024-03-08T00:01:52;96359.50;;;18.95;51.70
48390;BME280;34643;47.964;7.982;2024-03-08T00:04:17;96358.56;;;18.96;51.61
48390;BME280;34643;47.964;7.982;2024-03-08T00:06:43;96354.28;;;18.95;51.62
48390;BME280;34643;47.964;7.982;2024-03-08T00:09:11;96351.78;;;18.93;51.88
48390;BME280;34643;47.964;7.982;2024-03-08T00:11:36;96351.91;;;18.92;51.91
48390;BME280;34643;47.964;7.982;2024-03-08T00:14:01;96344.34;;;18.89;51.97
48390;BME280;34643;47.964;7.982;2024-03-08T00:16:27;96346.84;;;18.90;51.88
48390;BME280;34643;47.964;7.982;2024-03-08T00:18:52;96343.38;;;18.90;51.94
48390;BME280;34643;47.964;7.982;2024-03-08T00:21:17;96336.38;;;18.90;51.99
48390;BME280;34643;47.964;7.982;2024-03-08T00:23:43;96339.81;;;18.91;51.80
48390;BME280;34643;47.964;7.982;2024-03-08T00:26:08;96330.88;;;18.93;51.71
48390;BME280;34643;47.964;7.982;2024-03-08T00:28:34;96332.66;;;18.93;51.68
48390;BME280;34643;47.964;7.982;2024-03-08T00:31:02;96336.09;;;18.93;51.80
48390;BME280;34643;47.964;7.982;2024-03-08T00:33:27;96329.50;;;18.89;51.74
48390;BME280;34643;47.964;7.982;2024-03-08T00:35:56;96326.75;;;18.91;51.73
48390;BME280;34643;47.964;7.982;2024-03-08T00:38:21;96327.56;;;18.91;51.72
48390;BME280;34643;47.964;7.982;2024-03-08T00:40:46;96327.44;;;18.93;51.70
48390;BME280;34643;47.964;7.982;2024-03-08T00:43:12;96320.69;;;18.90;51.69
48390;BME280;34643;47.964;7.982;2024-03-08T00:45:37;96323.44;;;18.89;51.75
48390;BME280;34643;47.964;7.982;2024-03-08T00:48:03;96318.22;;;18.89;51.70
48390;BME280;34643;47.964;7.982;2024-03-08T00:50:28;96319.84;;;18.90;51.50
48390;BME280;34643;47.964;7.982;2024-03-08T00:52:54;96312.84;;;18.90;51.53
48390;BME280;34643;47.964;7.982;2024-03-08T00:55:19;96311.88;;;18.91;51.60
48390;BME280;34643;47.964;7.982;2024-03-08T00:57:45;96302.53;;;18.89;51.63
48390;BME280;34643;47.964;7.982;2024-03-08T01:00:10;96302.78;;;18.86;51.72
48390;BME280;34643;47.964;7.982;2024-03-08T01:02:37;96296.72;;;18.85;51.59
48390;BME280;34643;47.964;7.982;2024-03-08T01:05:02;96297.00;;;18.82;51.70
48390;BME280;34643;47.964;7.982;2024-03-08T01:07:29;96293.41;;;18.83;51.78
48390;BME280;34643;47.964;7.982;2024-03-08T01:09:54;96291.63;;;18.84;51.84
48390;BME280;34643;47.964;7.982;2024-03-08T01:12:19;96286.41;;;18.84;51.74
48390;BME280;34643;47.964;7.982;2024-03-08T01:14:45;96278.44;;;18.85;51.69
48390;BME280;34643;47.964;7.982;2024-03-08T01:17:10;96283.78;;;18.84;51.67
48390;BME280;34643;47.964;7.982;2024-03-08T01:19:37;96277.72;;;18.83;51.74
48390;BME280;34643;47.964;7.982;2024-03-08T01:22:02;96278.56;;;18.84;51.75
48390;BME280;34643;47.964;7.982;2024-03-08T01:24:28;96274.97;;;18.85;51.56
48390;BME280;34643;47.964;7.982;2024-03-08T01:26:54;96272.47;;;18.83;51.52
48390;BME280;34643;47.964;7.982;2024-03-08T01:29:19;96264.50;;;18.85;51.64
48390;BME280;34643;47.964;7.982;2024-03-08T01:31:44;96265.63;;;18.82;51.54
48390;BME280;34643;47.964;7.982;2024-03-08T01:34:09;96268.09;;;18.84;51.55
48390;BME280;34643;47.964;7.982;2024-03-08T01:36:35;96267.13;;;18.85;51.63
48390;BME280;34643;47.964;7.982;2024-03-08T01:39:02;96258.47;;;18.84;51.52
48390;BME280;34643;47.964;7.982;2024-03-08T01:41:33;96262.75;;;18.85;51.57
48390;BME280;34643;47.964;7.982;2024-03-08T01:43:58;96261.22;;;18.83;51.56
48390;BME280;34643;47.964;7.982;2024-03-08T01:46:24;96248.22;;;18.81;51.59
48390;BME280;34643;47.964;7.982;2024-03-08T01:48:49;96255.97;;;18.83;51.48
48390;BME280;34643;47.964;7.982;2024-03-08T01:51:15;96247.19;;;18.84;51.60
48390;BME280;34643;47.964;7.982;2024-03-08T01:53:41;96244.81;;;18.80;51.48
48390;BME280;34643;47.964;7.982;2024-03-08T01:56:08;96241.28;;;18.82;51.67
48390;BME280;34643;47.964;7.982;2024-03-08T01:58:33;96241.97;;;18.84;51.55
48390;BME280;34643;47.964;7.982;2024-03-08T02:01:00;96231.63;;;18.82;51.68
48390;BME280;34643;47.964;7.982;2024-03-08T02:03:28;96242.19;;;18.80;51.58
48390;BME280;34643;47.964;7.982;2024-03-08T02:05:53;96239.34;;;18.84;51.43
48390;BME280;34643;47.964;7.982;2024-03-08T02:08:19;96228.03;;;18.83;51.65
48390;BME280;34643;47.964;7.982;2024-03-08T02:10:47;96227.31;;;18.81;51.53
48390;BME280;34643;47.964;7.982;2024-03-08T02:13:14;96227.22;;;18.83;51.49
48390;BME280;34643;47.964;7.982;2024-03-08T02:15:55;96230.50;;;18.85;51.54
48390;BME280;34643;47.964;7.982;2024-03-08T02:18:21;96223.78;;;18.82;51.64
48390;BME280;34643;47.964;7.982;2024-03-08T02:20:50;96222.97;;;18.82;51.52
48390;BME280;34643;47.964;7.982;2024-03-08T02:23:17;96223.88;;;18.80;51.46
48390;BME280;34643;47.964;7.982;2024-03-08T02:25:43;96216.75;;;18.83;51.41
48390;BME280;34643;47.964;7.982;2024-03-08T02:28:09;96218.56;;;18.82;51.41
48390;BME280;34643;47.964;7.982;2024-03-08T02:30:35;96215.13;;;18.82;51.47
48390;BME280;34643;47.964;7.982;2024-03-08T02:33:01;96216.03;;;18.80;51.45
48390;BME280;34643;47.964;7.982;2024-03-08T02:35:26;96221.28;;;18.80;51.33
48390;BME280;34643;47.964;7.982;2024-03-08T02:37:51;96208.91;;;18.83;51.33
48390;BME280;34643;47.964;7.982;2024-03-08T02:40:16;96207.84;;;18.85;51.32
48390;BME280;34643;47.964;7.982;2024-03-08T02:42:42;96206.41;;;18.81;51.50
48390;BME280;34643;47.964;7.982;2024-03-08T02:45:08;96198.56;;;18.81;51.49
48390;BME280;34643;47.964;7.982;2024-03-08T02:47:35;96195.13;;;18.80;51.43
48390;BME280;34643;47.964;7.982;2024-03-08T02:50:00;96192.66;;;18.79;51.26
48390;BME280;34643;47.964;7.982;2024-03-08T02:52:26;96190.28;;;18.76;51.41
48390;BME280;34643;47.964;7.982;2024-03-08T02:54:52;96179.16;;;18.74;51.46
48390;BME280;34643;47.964;7.982;2024-03-08T02:57:17;96178.19;;;18.75;51.37
48390;BME280;34643;47.964;7.982;2024-03-08T02:59:43;96177.38;;;18.74;51.48
48390;BME280;34643;47.964;7.982;2024-03-08T03:02:08;96173.78;;;18.75;51.45
48390;BME280;34643;47.964;7.982;2024-03-08T03:04:35;96165.69;;;18.78;51.30
48390;BME280;34643;47.964;7.982;2024-03-08T03:07:00;96169.94;;;18.79;51.25
48390;BME280;34643;47.964;7.982;2024-03-08T03:09:26;96171.03;;;18.77;51.23
48390;BME280;34643;47.964;7.982;2024-03-08T03:11:55;96169.94;;;18.79;51.15
48390;BME280;34643;47.964;7.982;2024-03-08T03:14:21;96164.03;;;18.77;51.34
48390;BME280;34643;47.964;7.982;2024-03-08T03:16:47;96169.25;;;18.77;51.24
48390;BME280;34643;47.964;7.982;2024-03-08T03:19:12;96153.44;;;18.79;51.40
48390;BME280;34643;47.964;7.982;2024-03-08T03:21:37;96162.94;;;18.80;51.22
48390;BME280;34643;47.964;7.982;2024-03-08T03:24:03;96164.88;;;18.78;51.26
48390;BME280;34643;47.964;7.982;2024-03-08T03:26:29;96165.69;;;18.78;51.49
48390;BME280;34643;47.964;7.982;2024-03-08T03:28:56;96161.28;;;18.79;51.44
48390;BME280;34643;47.964;7.982;2024-03-08T03:31:22;96157.16;;;18.76;51.29
48390;BME280;34643;47.964;7.982;2024-03-08T03:33:49;96160.31;;;18.80;51.30
48390;BME280;34643;47.964;7.982;2024-03-08T03:36:16;96162.09;;;18.79;51.32
48390;BME280;34643;47.964;7.982;2024-03-08T03:38:42;96153.28;;;18.80;51.34
48390;BME280;34643;47.964;7.982;2024-03-08T03:41:08;96165.44;;;18.82;51.28
48390;BME280;34643;47.964;7.982;2024-03-08T03:43:36;96158.53;;;18.80;51.36
48390;BME280;34643;47.964;7.982;2024-03-08T03:46:05;96151.63;;;18.79;51.34
48390;BME280;34643;47.964;7.982;2024-03-08T03:48:30;96152.75;;;18.77;51.30
48390;BME280;34643;47.964;7.982;2024-03-08T03:50:57;96154.53;;;18.76;51.45
48390;BME280;34643;47.964;7.982;2024-03-08T03:53:22;96154.25;;;18.79;51.29
48390;BME280;34643;47.964;7.982;2024-03-08T03:55:47;96152.22;;;18.83;50.95
48390;BME280;34643;47.964;7.982;2024-03-08T03:58:13;96151.94;;;18.86;51.21
48390;BME280;34643;47.964;7.982;2024-03-08T04:00:38;96143.28;;;18.86;51.10
48390;BME280;34643;47.964;7.982;2024-03-08T04:03:03;96152.22;;;18.83;51.28
48390;BME280;34643;47.964;7.982;2024-03-08T04:05:29;96154.56;;;18.86;51.25
48390;BME280;34643;47.964;7.982;2024-03-08T04:07:54;96145.63;;;18.89;51.09
48390;BME280;34643;47.964;7.982;2024-03-08T04:10:19;96140.66;;;18.86;51.11
48390;BME280;34643;47.964;7.982;2024-03-08T04:12:45;96132.81;;;18.86;51.24
48390;BME280;34643;47.964;7.982;2024-03-08T04:15:10;96143.41;;;18.84;51.32
48390;BME280;34643;47.964;7.982;2024-03-08T04:17:36;96136.78;;;18.80;51.29
48390;BME280;34643;47.964;7.982;2024-03-08T04:20:02;96138.41;;;18.81;51.35
48390;BME280;34643;47.964;7.982;2024-03-08T04:22:34;96142.84;;;18.80;51.34
48390;BME280;34643;47.964;7.982;2024-03-08T04:25:00;96147.25;;;18.80;51.17
48390;BME280;34643;47.964;7.982;2024-03-08T04:27:25;96144.53;;;18.82;51.14
48390;BME280;34643;47.964;7.982;2024-03-08T04:29:50;96137.59;;;18.80;51.14
48390;BME280;34643;47.964;7.982;2024-03-08T04:32:16;96139.66;;;18.77;51.31
48390;BME280;34643;47.964;7.982;2024-03-08T04:34:42;96138.84;;;18.76;51.31
48390;BME280;34643;47.964;7.982;2024-03-08T04:37:07;96136.25;;;18.76;51.25
48390;BME280;34643;47.964;7.982;2024-03-08T04:39:35;96129.91;;;18.79;51.12
48390;BME280;34643;47.964;7.982;2024-03-08T04:42:02;96123.72;;;18.80;51.29
48390;BME280;34643;47.964;7.982;2024-03-08T04:44:35;96125.47;;;18.79;51.38
48390;BME280;34643;47.964;7.982;2024-03-08T04:47:01;96127.16;;;18.80;51.34
48390;BME280;34643;47.964;7.982;2024-03-08T04:49:27;96118.09;;;18.85;51.40
48390;BME280;34643;47.964;7.982;2024-03-08T04:51:53;96121.69;;;18.84;51.55
48390;BME280;34643;47.964;7.982;2024-03-08T04:54:18;96118.09;;;18.85;51.69
48390;BME280;34643;47.964;7.982;2024-03-08T04:56:44;96118.94;;;18.85;51.60
48390;BME280;34643;47.964;7.982;2024-03-08T04:59:09;96111.22;;;18.84;51.77
48390;BME280;34643;47.964;7.982;2024-03-08T05:01:34;96113.84;;;18.84;51.74
48390;BME280;34643;47.964;7.982;2024-03-08T05:04:03;96113.25;;;18.90;51.66
48390;BME280;34643;47.964;7.982;2024-03-08T05:06:28;96105.72;;;18.87;52.38
48390;BME280;34643;47.964;7.982;2024-03-08T05:08:55;96109.03;;;18.89;52.43
48390;BME280;34643;47.964;7.982;2024-03-08T05:11:20;96107.63;;;18.94;52.73
48390;BME280;34643;47.964;7.982;2024-03-08T05:13:46;96103.47;;;18.92;53.62
48390;BME280;34643;47.964;7.982;2024-03-08T05:16:11;96100.31;;;18.98;53.23
48390;BME280;34643;47.964;7.982;2024-03-08T05:18:37;96100.06;;;19.01;54.30
48390;BME280;34643;47.964;7.982;2024-03-08T05:21:02;96105.97;;;19.03;53.72
48390;BME280;34643;47.964;7.982;2024-03-08T05:23:29;96103.34;;;19.03;53.75
48390;BME280;34643;47.964;7.982;2024-03-08T05:25:54;96103.91;;;18.97;54.21
48390;BME280;34643;47.964;7.982;2024-03-08T05:28:20;96104.31;;;19.02;54.45
48390;BME280;34643;47.964;7.982;2024-03-08T05:30:46;96090.69;;;19.08;46.68
48390;BME280;34643;47.964;7.982;2024-03-08T05:33:11;96095.53;;;18.45;38.64
48390;BME280;34643;47.964;7.982;2024-03-08T05:35:39;96089.06;;;17.79;37.87
48390;BME280;34643;47.964;7.982;2024-03-08T05:38:05;96093.63;;;17.46;37.27
48390;BME280;34643;47.964;7.982;2024-03-08T05:40:30;96096.75;;;17.09;36.30
48390;BME280;34643;47.964;7.982;2024-03-08T05:42:57;96100.94;;;16.79;36.20
48390;BME280;34643;47.964;7.982;2024-03-08T05:45:23;96098.09;;;16.50;36.59
48390;BME280;34643;47.964;7.982;2024-03-08T05:47:50;96098.31;;;16.26;36.18
48390;BME280;34643;47.964;7.982;2024-03-08T05:50:16;96097.22;;;15.96;36.55
48390;BME280;34643;47.964;7.982;2024-03-08T05:52:42;96104.78;;;15.88;36.59
48390;BME280;34643;47.964;7.982;2024-03-08T05:55:08;96105.84;;;15.63;36.22
48390;BME280;34643;47.964;7.982;2024-03-08T05:57:35;96106.81;;;15.39;36.49
48390;BME280;34643;47.964;7.982;2024-03-08T06:00:03;96114.50;;;15.40;37.95
48390;BME280;34643;47.964;7.982;2024-03-08T06:02:38;96110.50;;;15.82;39.06
48390;BME280;34643;47.964;7.982;2024-03-08T06:05:07;96115.88;;;16.12;41.74
48390;BME280;34643;47.964;7.982;2024-03-08T06:07:32;96113.09;;;16.37;42.47
48390;BME280;34643;47.964;7.982;2024-03-08T06:09:58;96108.16;;;16.54;42.83
48390;BME280;34643;47.964;7.982;2024-03-08T06:12:23;96113.63;;;16.72;42.91
48390;BME280;34643;47.964;7.982;2024-03-08T06:14:53;96112.53;;;16.86;43.04
48390;BME280;34643;47.964;7.982;2024-03-08T06:17:19;96118.38;;;17.00;43.29
48390;BME280;34643;47.964;7.982;2024-03-08T06:19:44;96115.72;;;17.11;43.36
48390;BME280;34643;47.964;7.982;2024-03-08T06:22:09;96106.41;;;17.18;43.74
48390;BME280;34643;47.964;7.982;2024-03-08T06:24:35;96107.25;;;17.28;43.96
48390;BME280;34643;47.964;7.982;2024-03-08T06:27:03;96107.44;;;17.37;43.85
48390;BME280;34643;47.964;7.982;2024-03-08T06:29:28;96102.41;;;17.45;44.24
48390;BME280;34643;47.964;7.982;2024-03-08T06:31:54;96102.56;;;17.53;44.40
48390;BME280;34643;47.964;7.982;2024-03-08T06:34:20;96108.09;;;17.60;44.37
48390;BME280;34643;47.964;7.982;2024-03-08T06:36:46;96099.75;;;17.66;44.67
48390;BME280;34643;47.964;7.982;2024-03-08T06:39:11;96098.41;;;17.72;44.61
48390;BME280;34643;47.964;7.982;2024-03-08T06:41:37;96093.75;;;17.75;44.69
48390;BME280;34643;47.964;7.982;2024-03-08T06:44:02;96089.75;;;17.81;44.65
48390;BME280;34643;47.964;7.982;2024-03-08T06:46:28;96082.38;;;17.86;45.07
48390;BME280;34643;47.964;7.982;2024-03-08T06:48:53;96089.97;;;17.89;45.01
48390;BME280;34643;47.964;7.982;2024-03-08T06:51:18;96082.69;;;17.93;45.06
48390;BME280;34643;47.964;7.982;2024-03-08T06:53:44;96081.31;;;17.98;45.20
48390;BME280;34643;47.964;7.982;2024-03-08T06:56:09;96082.00;;;18.00;45.30
48390;BME280;34643;47.964;7.982;2024-03-08T06:58:34;96072.13;;;18.04;45.41
48390;BME280;34643;47.964;7.982;2024-03-08T07:01:00;96069.09;;;18.09;45.39
48390;BME280;34643;47.964;7.982;2024-03-08T07:03:29;96075.84;;;18.11;45.30
48390;BME280;34643;47.964;7.982;2024-03-08T07:05:55;96066.06;;;18.13;45.37
48390;BME280;34643;47.964;7.982;2024-03-08T07:08:21;96068.28;;;18.18;45.65
48390;BME280;34643;47.964;7.982;2024-03-08T07:10:49;96064.69;;;18.19;45.68
48390;BME280;34643;47.964;7.982;2024-03-08T07:13:14;96062.63;;;18.22;45.65
48390;BME280;34643;47.964;7.982;2024-03-08T07:15:40;96064.31;;;18.23;45.87
48390;BME280;34643;47.964;7.982;2024-03-08T07:18:05;96048.50;;;18.25;45.71
48390;BME280;34643;47.964;7.982;2024-03-08T07:20:30;96052.59;;;18.28;46.03
48390;BME280;34643;47.964;7.982;2024-03-08T07:22:56;96042.72;;;18.31;46.13
48390;BME280;34643;47.964;7.982;2024-03-08T07:25:21;96046.53;;;18.37;46.09
48390;BME280;34643;47.964;7.982;2024-03-08T07:30:12;96041.59;;;18.43;46.04
48390;BME280;34643;47.964;7.982;2024-03-08T07:32:38;96040.50;;;18.46;46.12
48390;BME280;34643;47.964;7.982;2024-03-08T07:35:03;96038.72;;;18.47;46.15
48390;BME280;34643;47.964;7.982;2024-03-08T07:37:29;96034.03;;;18.50;46.41
48390;BME280;34643;47.964;7.982;2024-03-08T07:39:54;96034.31;;;18.57;46.31
48390;BME280;34643;47.964;7.982;2024-03-08T07:42:19;96033.34;;;18.58;46.29
48390;BME280;34643;47.964;7.982;2024-03-08T07:44:47;96029.78;;;18.59;46.52
48390;BME280;34643;47.964;7.982;2024-03-08T07:47:13;96032.09;;;18.62;46.41
48390;BME280;34643;47.964;7.982;2024-03-08T07:49:38;96028.38;;;18.65;46.35
48390;BME280;34643;47.964;7.982;2024-03-08T07:52:04;96028.91;;;18.68;46.42
48390;BME280;34643;47.964;7.982;2024-03-08T07:54:30;96025.34;;;18.69;46.59
48390;BME280;34643;47.964;7.982;2024-03-08T07:56:55;96021.75;;;18.70;46.45
48390;BME280;34643;47.964;7.982;2024-03-08T07:59:20;96022.16;;;18.75;46.66
48390;BME280;34643;47.964;7.982;2024-03-08T08:01:46;96015.97;;;18.76;46.63
48390;BME280;34643;47.964;7.982;2024-03-08T08:04:12;96019.28;;;18.78;46.53
48390;BME280;34643;47.964;7.982;2024-03-08T08:06:39;96015.53;;;18.81;46.79
48390;BME280;34643;47.964;7.982;2024-03-08T08:09:07;96011.88;;;18.84;46.75
48390;BME280;34643;47.964;7.982;2024-03-08T08:11:39;96018.44;;;18.88;46.59
48390;BME280;34643;47.964;7.982;2024-03-08T08:14:06;96019.13;;;18.90;46.79
48390;BME280;34643;47.964;7.982;2024-03-08T08:16:31;96011.00;;;18.93;46.64
48390;BME280;34643;47.964;7.982;2024-03-08T08:18:57;96005.78;;;18.93;46.85
48390;BME280;34643;47.964;7.982;2024-03-08T08:21:22;96000.28;;;18.96;46.79
48390;BME280;34643;47.964;7.982;2024-03-08T08:23:47;96004.38;;;18.98;46.73
48390;BME280;34643;47.964;7.982;2024-03-08T08:26:13;95995.56;;;18.99;46.90
48390;BME280;34643;47.964;7.982;2024-03-08T08:28:38;96003.28;;;19.01;46.93
48390;BME280;34643;47.964;7.982;2024-03-08T08:31:03;95999.53;;;19.04;46.86
48390;BME280;34643;47.964;7.982;2024-03-08T08:33:29;95998.44;;;19.06;46.79
48390;BME280;34643;47.964;7.982;2024-03-08T08:35:54;95996.50;;;19.08;46.78
48390;BME280;34643;47.964;7.982;2024-03-08T08:38:20;95996.38;;;19.10;46.92
48390;BME280;34643;47.964;7.982;2024-03-08T08:40:45;95996.06;;;19.13;46.87
48390;BME280;34643;47.964;7.982;2024-03-08T08:43:12;95992.50;;;19.14;46.92
48390;BME280;34643;47.964;7.982;2024-03-08T08:45:37;95988.88;;;19.15;47.01
48390;BME280;34643;47.964;7.982;2024-03-08T08:48:04;95983.53;;;19.16;47.00
48390;BME280;34643;47.964;7.982;2024-03-08T08:50:30;95989.44;;;19.18;47.04
48390;BME280;34643;47.964;7.982;2024-03-08T08:52:56;95992.56;;;19.22;47.04
48390;BME280;34643;47.964;7.982;2024-03-08T08:55:21;95991.47;;;19.25;46.91
48390;BME280;34643;47.964;7.982;2024-03-08T08:57:50;95987.59;;;19.29;47.01
48390;BME280;34643;47.964;7.982;2024-03-08T09:00:17;95995.31;;;19.30;47.09
48390;BME280;34643;47.964;7.982;2024-03-08T09:02:43;95994.34;;;19.31;46.97
48390;BME280;34643;47.964;7.982;2024-03-08T09:05:09;95984.41;;;19.35;46.97
48390;BME280;34643;47.964;7.982;2024-03-08T09:07:35;95986.88;;;19.36;47.02
48390;BME280;34643;47.964;7.982;2024-03-08T09:10:00;95985.75;;;19.39;47.03
48390;BME280;34643;47.964;7.982;2024-03-08T09:12:26;95984.63;;;19.42;47.04
48390;BME280;34643;47.964;7.982;2024-03-08T09:14:51;95988.91;;;19.43;47.09
48390;BME280;34643;47.964;7.982;2024-03-08T09:17:16;95985.16;;;19.45;47.03
48390;BME280;34643;47.964;7.982;2024-03-08T09:19:45;95979.94;;;19.45;47.16
48390;BME280;34643;47.964;7.982;2024-03-08T09:22:10;95978.69;;;19.49;46.94
48390;BME280;34643;47.964;7.982;2024-03-08T09:24:36;95976.06;;;19.49;47.09
48390;BME280;34643;47.964;7.982;2024-03-08T09:27:01;95970.56;;;19.52;47.04
48390;BME280;34643;47.964;7.982;2024-03-08T09:29:26;95968.59;;;19.54;47.00
48390;BME280;34643;47.964;7.982;2024-03-08T09:31:52;95965.84;;;19.56;47.13
48390;BME280;34643;47.964;7.982;2024-03-08T09:34:17;95963.91;;;19.58;46.98
48390;BME280;34643;47.964;7.982;2024-03-08T09:36:44;95956.03;;;19.58;47.12
48390;BME280;34643;47.964;7.982;2024-03-08T09:39:09;95947.88;;;19.61;47.03
48390;BME280;34643;47.964;7.982;2024-03-08T09:41:34;95941.81;;;19.61;47.32
48390;BME280;34643;47.964;7.982;2024-03-08T09:44:00;95939.06;;;19.62;47.14
48390;BME280;34643;47.964;7.982;2024-03-08T09:46:26;95945.94;;;19.63;47.09
48390;BME280;34643;47.964;7.982;2024-03-08T09:48:52;95933.81;;;19.62;47.22
48390;BME280;34643;47.964;7.982;2024-03-08T09:51:20;95938.78;;;19.65;47.19
48390;BME280;34643;47.964;7.982;2024-03-08T09:53:48;95936.16;;;19.65;47.30
48390;BME280;34643;47.964;7.982;2024-03-08T09:56:14;95925.69;;;19.65;47.23
48390;BME280;34643;47.964;7.982;2024-03-08T09:58:39;95921.25;;;19.66;47.37
48390;BME280;34643;47.964;7.982;2024-03-08T10:01:28;95921.13;;;19.67;47.30
48390;BME280;34643;47.964;7.982;2024-03-08T10:03:53;95920.31;;;19.67;47.47
48390;BME280;34643;47.964;7.982;2024-03-08T10:06:22;95916.84;;;19.66;47.23
48390;BME280;34643;47.964;7.982;2024-03-08T10:08:48;95913.94;;;19.69;47.45
48390;BME280;34643;47.964;7.982;2024-03-08T10:11:13;95911.84;;;19.73;47.41
48390;BME280;34643;47.964;7.982;2024-03-08T10:13:39;95907.59;;;19.72;47.36
48390;BME280;34643;47.964;7.982;2024-03-08T10:16:05;95910.22;;;19.72;47.40
48390;BME280;34643;47.964;7.982;2024-03-08T10:18:32;95907.59;;;19.72;47.45
48390;BME280;34643;47.964;7.982;2024-03-08T10:21:09;95911.84;;;19.73;47.46
48390;BME280;34643;47.964;7.982;2024-03-08T10:23:40;95914.44;;;19.73;47.50
48390;BME280;34643;47.964;7.982;2024-03-08T10:26:17;95915.16;;;19.75;47.42
48390;BME280;34643;47.964;7.982;2024-03-08T10:28:44;95916.00;;;19.75;47.47
48390;BME280;34643;47.964;7.982;2024-03-08T10:31:10;95903.72;;;19.76;47.47
48390;BME280;34643;47.964;7.982;2024-03-08T10:33:35;95907.00;;;19.78;47.50
48390;BME280;34643;47.964;7.982;2024-03-08T10:36:00;95903.56;;;19.78;47.54
48390;BME280;34643;47.964;7.982;2024-03-08T10:38:26;95896.53;;;19.78;47.36
48390;BME280;34643;47.964;7.982;2024-03-08T10:40:51;95896.69;;;19.77;47.43
48390;BME280;34643;47.964;7.982;2024-03-08T10:43:24;95895.72;;;19.78;47.47
48390;BME280;34643;47.964;7.982;2024-03-08T10:45:51;95898.19;;;19.79;47.52
48390;BME280;34643;47.964;7.982;2024-03-08T10:50:45;95898.19;;;19.79;47.56
48390;BME280;34643;47.964;7.982;2024-03-08T10:53:13;95894.59;;;19.80;47.66
48390;BME280;34643;47.964;7.982;2024-03-08T10:55:39;95891.97;;;19.80;47.62
48390;BME280;34643;47.964;7.982;2024-03-08T10:58:05;95879.69;;;19.81;47.60
48390;BME280;34643;47.964;7.982;2024-03-08T11:00:33;95882.16;;;19.82;47.55
48390;BME280;34643;47.964;7.982;2024-03-08T11:02:58;95881.88;;;19.85;47.63
48390;BME280;34643;47.964;7.982;2024-03-08T11:07:59;95886.28;;;19.85;47.55
48390;BME280;34643;47.964;7.982;2024-03-08T11:10:24;95875.66;;;19.86;47.62
48390;BME280;34643;47.964;7.982;2024-03-08T11:12:50;95872.53;;;19.83;47.65
48390;BME280;34643;47.964;7.982;2024-03-08T11:15:16;95860.25;;;19.83;47.62
48390;BME280;34643;47.964;7.982;2024-03-08T11:17:45;95859.09;;;19.86;47.60
48390;BME280;34643;47.964;7.982;2024-03-08T11:20:17;95850.44;;;19.85;47.57
48390;BME280;34643;47.964;7.982;2024-03-08T11:28:21;95840.94;;;19.84;47.48
48390;BME280;34643;47.964;7.982;2024-03-08T11:33:31;95837.78;;;19.81;47.63
48390;BME280;34643;47.964;7.982;2024-03-08T11:38:28;95832.56;;;19.81;47.71
48390;BME280;34643;47.964;7.982;2024-03-08T11:40:56;95832.56;;;19.81;47.78
48390;BME280;34643;47.964;7.982;2024-03-08T11:43:21;95830.44;;;19.84;47.76
48390;BME280;34643;47.964;7.982;2024-03-08T11:45:47;95828.69;;;19.85;47.70
48390;BME280;34643;47.964;7.982;2024-03-08T11:48:12;95826.06;;;19.85;47.79
48390;BME280;34643;47.964;7.982;2024-03-08T11:50:38;95823.28;;;19.86;47.82
48390;BME280;34643;47.964;7.982;2024-03-08T11:53:03;95823.97;;;19.88;47.83
48390;BME280;34643;47.964;7.982;2024-03-08T11:55:29;95819.81;;;19.86;47.76
48390;BME280;34643;47.964;7.982;2024-03-08T11:58:02;95804.63;;;19.89;47.79
48390;BME280;34643;47.964;7.982;2024-03-08T12:00:27;95806.28;;;19.90;47.86
48390;BME280;34643;47.964;7.982;2024-03-08T12:03:05;95806.44;;;19.89;47.75
48390;BME280;34643;47.964;7.982;2024-03-08T12:05:31;95803.00;;;19.88;47.82
48390;BME280;34643;47.964;7.982;2024-03-08T12:07:58;95807.25;;;19.89;47.87
48390;BME280;34643;47.964;7.982;2024-03-08T12:10:24;95797.09;;;19.86;47.89
48390;BME280;34643;47.964;7.982;2024-03-08T12:12:51;95784.69;;;19.88;47.83
48390;BME280;34643;47.964;7.982;2024-03-08T12:15:16;95793.19;;;19.90;47.79
48390;BME280;34643;47.964;7.982;2024-03-08T12:17:43;95782.72;;;19.90;47.78
48390;BME280;34643;47.964;7.982;2024-03-08T12:20:14;95782.72;;;19.90;47.58
48390;BME280;34643;47.964;7.982;2024-03-08T12:22:43;95768.97;;;19.88;47.75
48390;BME280;34643;47.964;7.982;2024-03-08T12:25:09;95765.50;;;19.88;47.68
48390;BME280;34643;47.964;7.982;2024-03-08T12:27:36;95758.94;;;19.84;47.70
48390;BME280;34643;47.964;7.982;2024-03-08T12:30:15;95755.34;;;19.85;47.77
48390;BME280;34643;47.964;7.982;2024-03-08T12:32:45;95754.50;;;19.84;47.64
48390;BME280;34643;47.964;7.982;2024-03-08T12:35:11;95754.69;;;19.83;47.55
48390;BME280;34643;47.964;7.982;2024-03-08T12:37:37;95754.00;;;19.81;47.87
48390;BME280;34643;47.964;7.982;2024-03-08T12:40:06;95739.44;;;19.78;47.74
48390;BME280;34643;47.964;7.982;2024-03-08T12:42:32;95739.44;;;19.78;47.78
48390;BME280;34643;47.964;7.982;2024-03-08T12:44:57;95722.91;;;19.78;47.78
48390;BME280;34643;47.964;7.982;2024-03-08T12:47:24;95720.44;;;19.76;47.71
48390;BME280;34643;47.964;7.982;2024-03-08T12:49:50;95710.94;;;19.75;47.77
48390;BME280;34643;47.964;7.982;2024-03-08T12:52:15;95708.31;;;19.75;47.70
48390;BME280;34643;47.964;7.982;2024-03-08T12:54:43;95708.31;;;19.75;47.73
48390;BME280;34643;47.964;7.982;2024-03-08T12:57:08;95701.88;;;19.69;47.85
48390;BME280;34643;47.964;7.982;2024-03-08T12:59:34;95697.59;;;19.68;47.81
48390;BME280;34643;47.964;7.982;2024-03-08T13:01:59;95696.94;;;19.66;47.82
48390;BME280;34643;47.964;7.982;2024-03-08T13:04:25;95691.56;;;19.68;47.86
48390;BME280;34643;47.964;7.982;2024-03-08T13:06:50;95682.06;;;19.67;47.80
48390;BME280;34643;47.964;7.982;2024-03-08T13:09:16;95688.44;;;19.64;47.78
48390;BME280;34643;47.964;7.982;2024-03-08T13:11:44;95676.16;;;19.65;47.89
48390;BME280;34643;47.964;7.982;2024-03-08T13:14:10;95673.72;;;19.63;47.79